sensor_id;sensor_type;location;lat;lon;timestamp;P1;durP1;ratioP1;P2;durP2;ratioP2
19149;SDS011;9707;49.158;8.632;2023-08-12T00:00:31;8.00;;;3.22;;
19149;SDS011;9707;49.158;8.632;2023-08-12T00:02:57;2.83;;;2.42;;
19149;SDS011;9707;49.158;8.632;2023-08-12T00:05:23;5.65;;;3.00;;
19149;SDS011;9707;49.158;8.632;2023-08-12T00:07:48;4.68;;;2.97;;
19149;SDS011;9707;49.158;8.632;2023-08-12T00:10:14;4.40;;;2.45;;
19149;SDS011;9707;49.158;8.632;2023-08-12T00:12:39;4.88;;;2.70;;
19149;SDS011;9707;49.158;8.632;2023-08-12T00:15:05;3.00;;;2.70;;
19149;SDS011;9707;49.158;8.632;2023-08-12T00:17:33;3.15;;;2.83;;
19149;SDS011;9707;49.158;8.632;2023-08-12T00:19:59;3.88;;;2.85;;
19149;SDS011;9707;49.158;8.632;2023-08-12T00:22:24;3.47;;;2.55;;
19149;SDS011;9707;49.158;8.632;2023-08-12T00:24:50;6.72;;;3.00;;
19149;SDS011;9707;49.158;8.632;2023-08-12T00:27:16;6.50;;;3.60;;
19149;SDS011;9707;49.158;8.632;2023-08-12T00:29:42;4.13;;;2.67;;
19149;SDS011;9707;49.158;8.632;2023-08-12T00:32:08;4.32;;;2.72;;
19149;SDS011;9707;49.158;8.632;2023-08-12T00:34:33;3.20;;;2.72;;
19149;SDS011;9707;49.158;8.632;2023-08-12T00:36:59;4.03;;;2.50;;
19149;SDS011;9707;49.158;8.632;2023-08-12T00:39:24;2.88;;;2.50;;
19149;SDS011;9707;49.158;8.632;2023-08-12T00:41:49;2.80;;;2.22;;
19149;SDS011;9707;49.158;8.632;2023-08-12T00:44:14;3.45;;;2.60;;
19149;SDS011;9707;49.158;8.632;2023-08-12T00:46:40;5.22;;;2.60;;
19149;SDS011;9707;49.158;8.632;2023-08-12T00:49:07;4.70;;;2.45;;
19149;SDS011;9707;49.158;8.632;2023-08-12T00:51:33;3.92;;;2.75;;
19149;SDS011;9707;49.158;8.632;2023-08-12T00:53:59;3.33;;;2.45;;
19149;SDS011;9707;49.158;8.632;2023-08-12T00:56:27;2.67;;;2.22;;
19149;SDS011;9707;49.158;8.632;2023-08-12T00:58:53;3.70;;;2.70;;
19149;SDS011;9707;49.158;8.632;2023-08-12T01:01:18;2.63;;;2.17;;
19149;SDS011;9707;49.158;8.632;2023-08-12T01:03:45;2.95;;;2.00;;
19149;SDS011;9707;49.158;8.632;2023-08-12T01:06:10;3.70;;;2.30;;
19149;SDS011;9707;49.158;8.632;2023-08-12T01:08:35;4.57;;;3.28;;
19149;SDS011;9707;49.158;8.632;2023-08-12T01:11:08;5.70;;;3.10;;
19149;SDS011;9707;49.158;8.632;2023-08-12T01:16:40;3.58;;;2.50;;
19149;SDS011;9707;49.158;8.632;2023-08-12T01:19:10;2.95;;;2.65;;
19149;SDS011;9707;49.158;8.632;2023-08-12T01:21:44;4.15;;;3.50;;
19149;SDS011;9707;49.158;8.632;2023-08-12T01:24:11;3.70;;;2.58;;
19149;SDS011;9707;49.158;8.632;2023-08-12T01:26:37;5.47;;;2.83;;
19149;SDS011;9707;49.158;8.632;2023-08-12T01:29:02;2.83;;;2.40;;
19149;SDS011;9707;49.158;8.632;2023-08-12T01:31:37;2.10;;;1.80;;
19149;SDS011;9707;49.158;8.632;2023-08-12T01:36:39;3.92;;;2.92;;
19149;SDS011;9707;49.158;8.632;2023-08-12T01:39:10;5.20;;;3.00;;
19149;SDS011;9707;49.158;8.632;2023-08-12T01:41:36;5.85;;;3.20;;
19149;SDS011;9707;49.158;8.632;2023-08-12T01:44:02;3.95;;;3.00;;
19149;SDS011;9707;49.158;8.632;2023-08-12T01:46:28;4.45;;;3.05;;
19149;SDS011;9707;49.158;8.632;2023-08-12T01:48:54;6.25;;;2.97;;
19149;SDS011;9707;49.158;8.632;2023-08-12T01:51:19;4.75;;;2.78;;
19149;SDS011;9707;49.158;8.632;2023-08-12T01:53:44;4.35;;;3.00;;
19149;SDS011;9707;49.158;8.632;2023-08-12T01:56:10;4.80;;;3.08;;
19149;SDS011;9707;49.158;8.632;2023-08-12T01:58:35;4.53;;;3.33;;
19149;SDS011;9707;49.158;8.632;2023-08-12T02:01:00;6.10;;;3.28;;
19149;SDS011;9707;49.158;8.632;2023-08-12T02:03:25;4.90;;;3.40;;
19149;SDS011;9707;49.158;8.632;2023-08-12T02:05:51;4.47;;;3.28;;
19149;SDS011;9707;49.158;8.632;2023-08-12T02:08:16;4.65;;;2.88;;
19149;SDS011;9707;49.158;8.632;2023-08-12T02:10:41;3.95;;;3.47;;
19149;SDS011;9707;49.158;8.632;2023-08-12T02:13:06;6.30;;;3.22;;
19149;SDS011;9707;49.158;8.632;2023-08-12T02:15:32;4.10;;;3.28;;
19149;SDS011;9707;49.158;8.632;2023-08-12T02:17:57;3.83;;;3.40;;
19149;SDS011;9707;49.158;8.632;2023-08-12T02:20:23;3.47;;;2.53;;
19149;SDS011;9707;49.158;8.632;2023-08-12T02:22:49;5.20;;;2.95;;
19149;SDS011;9707;49.158;8.632;2023-08-12T02:25:14;8.60;;;3.28;;
19149;SDS011;9707;49.158;8.632;2023-08-12T02:27:39;5.00;;;3.00;;
19149;SDS011;9707;49.158;8.632;2023-08-12T02:30:05;6.03;;;3.05;;
19149;SDS011;9707;49.158;8.632;2023-08-12T02:32:31;4.00;;;2.80;;
19149;SDS011;9707;49.158;8.632;2023-08-12T02:34:58;4.10;;;2.83;;
19149;SDS011;9707;49.158;8.632;2023-08-12T02:37:24;8.30;;;3.03;;
19149;SDS011;9707;49.158;8.632;2023-08-12T02:39:49;6.07;;;2.97;;
19149;SDS011;9707;49.158;8.632;2023-08-12T02:42:14;7.93;;;3.22;;
19149;SDS011;9707;49.158;8.632;2023-08-12T02:44:39;6.15;;;3.25;;
19149;SDS011;9707;49.158;8.632;2023-08-12T02:47:05;7.25;;;3.28;;
19149;SDS011;9707;49.158;8.632;2023-08-12T02:49:30;3.42;;;2.80;;
19149;SDS011;9707;49.158;8.632;2023-08-12T02:51:55;5.95;;;3.20;;
19149;SDS011;9707;49.158;8.632;2023-08-12T02:54:21;3.35;;;3.00;;
19149;SDS011;9707;49.158;8.632;2023-08-12T02:56:46;4.10;;;3.50;;
19149;SDS011;9707;49.158;8.632;2023-08-12T02:59:11;4.53;;;3.42;;
19149;SDS011;9707;49.158;8.632;2023-08-12T03:01:37;3.50;;;3.20;;
19149;SDS011;9707;49.158;8.632;2023-08-12T03:04:02;6.53;;;3.13;;
19149;SDS011;9707;49.158;8.632;2023-08-12T03:06:27;4.97;;;3.13;;
19149;SDS011;9707;49.158;8.632;2023-08-12T03:08:53;5.07;;;3.55;;
19149;SDS011;9707;49.158;8.632;2023-08-12T03:11:18;5.70;;;3.67;;
19149;SDS011;9707;49.158;8.632;2023-08-12T03:13:44;4.07;;;3.05;;
19149;SDS011;9707;49.158;8.632;2023-08-12T03:16:12;5.50;;;2.97;;
19149;SDS011;9707;49.158;8.632;2023-08-12T03:18:39;3.25;;;2.90;;
19149;SDS011;9707;49.158;8.632;2023-08-12T03:21:08;3.33;;;2.78;;
19149;SDS011;9707;49.158;8.632;2023-08-12T03:23:37;5.07;;;3.00;;
19149;SDS011;9707;49.158;8.632;2023-08-12T03:26:03;5.30;;;2.97;;
19149;SDS011;9707;49.158;8.632;2023-08-12T03:28:29;4.03;;;3.15;;
19149;SDS011;9707;49.158;8.632;2023-08-12T03:30:55;5.65;;;3.50;;
19149;SDS011;9707;49.158;8.632;2023-08-12T03:33:20;4.57;;;3.05;;
19149;SDS011;9707;49.158;8.632;2023-08-12T03:35:46;2.83;;;2.53;;
19149;SDS011;9707;49.158;8.632;2023-08-12T03:38:11;5.18;;;3.40;;
19149;SDS011;9707;49.158;8.632;2023-08-12T03:40:40;3.78;;;3.08;;
19149;SDS011;9707;49.158;8.632;2023-08-12T03:43:06;3.63;;;3.20;;
19149;SDS011;9707;49.158;8.632;2023-08-12T03:45:31;6.32;;;3.05;;
19149;SDS011;9707;49.158;8.632;2023-08-12T03:47:57;4.07;;;3.05;;
19149;SDS011;9707;49.158;8.632;2023-08-12T03:50:22;6.40;;;3.40;;
19149;SDS011;9707;49.158;8.632;2023-08-12T03:52:47;4.18;;;3.17;;
19149;SDS011;9707;49.158;8.632;2023-08-12T03:55:13;4.18;;;2.72;;
19149;SDS011;9707;49.158;8.632;2023-08-12T03:57:38;2.65;;;2.17;;
19149;SDS011;9707;49.158;8.632;2023-08-12T04:00:03;4.32;;;3.42;;
19149;SDS011;9707;49.158;8.632;2023-08-12T04:02:29;4.85;;;3.40;;
19149;SDS011;9707;49.158;8.632;2023-08-12T04:04:55;6.47;;;3.50;;
19149;SDS011;9707;49.158;8.632;2023-08-12T04:07:20;4.35;;;2.10;;
19149;SDS011;9707;49.158;8.632;2023-08-12T04:09:45;3.67;;;3.28;;
19149;SDS011;9707;49.158;8.632;2023-08-12T04:12:11;4.50;;;2.97;;
19149;SDS011;9707;49.158;8.632;2023-08-12T04:14:36;3.50;;;2.63;;
19149;SDS011;9707;49.158;8.632;2023-08-12T04:17:01;4.70;;;3.25;;
19149;SDS011;9707;49.158;8.632;2023-08-12T04:19:26;4.88;;;3.40;;
19149;SDS011;9707;49.158;8.632;2023-08-12T04:21:52;3.72;;;3.38;;
19149;SDS011;9707;49.158;8.632;2023-08-12T04:24:17;4.85;;;3.08;;
19149;SDS011;9707;49.158;8.632;2023-08-12T04:26:42;5.18;;;3.72;;
19149;SDS011;9707;49.158;8.632;2023-08-12T04:29:07;3.83;;;2.70;;
19149;SDS011;9707;49.158;8.632;2023-08-12T04:31:33;4.78;;;3.03;;
19149;SDS011;9707;49.158;8.632;2023-08-12T04:33:58;4.28;;;3.40;;
19149;SDS011;9707;49.158;8.632;2023-08-12T04:36:24;4.40;;;2.63;;
19149;SDS011;9707;49.158;8.632;2023-08-12T04:38:49;4.80;;;2.88;;
19149;SDS011;9707;49.158;8.632;2023-08-12T04:41:15;3.47;;;3.13;;
19149;SDS011;9707;49.158;8.632;2023-08-12T04:43:40;5.70;;;3.20;;
19149;SDS011;9707;49.158;8.632;2023-08-12T04:46:06;4.18;;;3.03;;
19149;SDS011;9707;49.158;8.632;2023-08-12T04:48:31;3.58;;;3.28;;
19149;SDS011;9707;49.158;8.632;2023-08-12T04:50:56;6.50;;;3.88;;
19149;SDS011;9707;49.158;8.632;2023-08-12T04:53:25;4.35;;;3.10;;
19149;SDS011;9707;49.158;8.632;2023-08-12T04:55:50;3.88;;;3.40;;
19149;SDS011;9707;49.158;8.632;2023-08-12T04:58:16;4.13;;;3.65;;
19149;SDS011;9707;49.158;8.632;2023-08-12T05:00:42;7.35;;;3.85;;
19149;SDS011;9707;49.158;8.632;2023-08-12T05:03:07;6.85;;;3.28;;
19149;SDS011;9707;49.158;8.632;2023-08-12T05:05:32;3.95;;;3.55;;
19149;SDS011;9707;49.158;8.632;2023-08-12T05:07:57;6.75;;;3.45;;
19149;SDS011;9707;49.158;8.632;2023-08-12T05:10:23;4.78;;;3.40;;
19149;SDS011;9707;49.158;8.632;2023-08-12T05:12:48;4.93;;;3.00;;
19149;SDS011;9707;49.158;8.632;2023-08-12T05:15:15;3.38;;;2.85;;
19149;SDS011;9707;49.158;8.632;2023-08-12T05:17:40;5.57;;;3.45;;
19149;SDS011;9707;49.158;8.632;2023-08-12T05:20:06;5.20;;;3.67;;
19149;SDS011;9707;49.158;8.632;2023-08-12T05:22:32;6.13;;;3.25;;
19149;SDS011;9707;49.158;8.632;2023-08-12T05:24:57;4.93;;;3.40;;
19149;SDS011;9707;49.158;8.632;2023-08-12T05:27:22;5.47;;;3.53;;
19149;SDS011;9707;49.158;8.632;2023-08-12T05:29:48;4.00;;;3.60;;
19149;SDS011;9707;49.158;8.632;2023-08-12T05:32:13;4.10;;;3.40;;
19149;SDS011;9707;49.158;8.632;2023-08-12T05:34:38;5.40;;;3.40;;
19149;SDS011;9707;49.158;8.632;2023-08-12T05:37:03;4.63;;;3.10;;
19149;SDS011;9707;49.158;8.632;2023-08-12T05:39:29;8.10;;;3.05;;
19149;SDS011;9707;49.158;8.632;2023-08-12T05:41:54;4.45;;;3.63;;
19149;SDS011;9707;49.158;8.632;2023-08-12T05:44:19;6.88;;;3.75;;
19149;SDS011;9707;49.158;8.632;2023-08-12T05:46:44;6.40;;;3.30;;
19149;SDS011;9707;49.158;8.632;2023-08-12T05:49:10;6.85;;;3.67;;
19149;SDS011;9707;49.158;8.632;2023-08-12T05:51:35;4.43;;;3.53;;
19149;SDS011;9707;49.158;8.632;2023-08-12T05:54:00;5.45;;;3.42;;
19149;SDS011;9707;49.158;8.632;2023-08-12T05:56:26;4.25;;;3.45;;
19149;SDS011;9707;49.158;8.632;2023-08-12T05:58:51;6.30;;;3.75;;
19149;SDS011;9707;49.158;8.632;2023-08-12T06:01:16;3.53;;;3.22;;
19149;SDS011;9707;49.158;8.632;2023-08-12T06:03:42;5.28;;;3.50;;
19149;SDS011;9707;49.158;8.632;2023-08-12T06:06:07;7.47;;;4.20;;
19149;SDS011;9707;49.158;8.632;2023-08-12T06:08:32;4.93;;;3.33;;
19149;SDS011;9707;49.158;8.632;2023-08-12T06:10:58;5.22;;;4.13;;
19149;SDS011;9707;49.158;8.632;2023-08-12T06:13:23;4.32;;;3.53;;
19149;SDS011;9707;49.158;8.632;2023-08-12T06:15:48;4.18;;;3.50;;
19149;SDS011;9707;49.158;8.632;2023-08-12T06:18:13;3.97;;;2.80;;
19149;SDS011;9707;49.158;8.632;2023-08-12T06:20:39;4.00;;;3.50;;
19149;SDS011;9707;49.158;8.632;2023-08-12T06:23:04;3.88;;;3.55;;
19149;SDS011;9707;49.158;8.632;2023-08-12T06:25:29;5.80;;;4.03;;
19149;SDS011;9707;49.158;8.632;2023-08-12T06:27:54;4.78;;;3.95;;
19149;SDS011;9707;49.158;8.632;2023-08-12T06:30:20;6.97;;;3.63;;
19149;SDS011;9707;49.158;8.632;2023-08-12T06:32:45;5.47;;;4.40;;
19149;SDS011;9707;49.158;8.632;2023-08-12T06:35:10;5.45;;;3.70;;
19149;SDS011;9707;49.158;8.632;2023-08-12T06:37:36;4.15;;;3.45;;
19149;SDS011;9707;49.158;8.632;2023-08-12T06:40:04;5.15;;;3.63;;
19149;SDS011;9707;49.158;8.632;2023-08-12T06:42:29;8.13;;;4.22;;
19149;SDS011;9707;49.158;8.632;2023-08-12T06:44:56;5.80;;;4.07;;
19149;SDS011;9707;49.158;8.632;2023-08-12T06:47:25;7.20;;;3.85;;
19149;SDS011;9707;49.158;8.632;2023-08-12T06:49:52;6.40;;;3.80;;
19149;SDS011;9707;49.158;8.632;2023-08-12T06:52:17;5.68;;;3.90;;
19149;SDS011;9707;49.158;8.632;2023-08-12T06:54:42;5.65;;;3.40;;
19149;SDS011;9707;49.158;8.632;2023-08-12T06:57:07;5.78;;;3.97;;
19149;SDS011;9707;49.158;8.632;2023-08-12T06:59:33;8.13;;;4.50;;
19149;SDS011;9707;49.158;8.632;2023-08-12T07:01:58;5.53;;;4.10;;
19149;SDS011;9707;49.158;8.632;2023-08-12T07:04:23;6.20;;;5.22;;
19149;SDS011;9707;49.158;8.632;2023-08-12T07:06:49;4.55;;;3.92;;
19149;SDS011;9707;49.158;8.632;2023-08-12T07:09:14;5.90;;;4.53;;
19149;SDS011;9707;49.158;8.632;2023-08-12T07:11:39;5.90;;;4.53;;
19149;SDS011;9707;49.158;8.632;2023-08-12T07:14:05;5.95;;;5.03;;
19149;SDS011;9707;49.158;8.632;2023-08-12T07:16:30;5.90;;;3.85;;
19149;SDS011;9707;49.158;8.632;2023-08-12T07:18:55;5.43;;;4.50;;
19149;SDS011;9707;49.158;8.632;2023-08-12T07:21:21;8.32;;;4.40;;
19149;SDS011;9707;49.158;8.632;2023-08-12T07:23:46;5.93;;;4.38;;
19149;SDS011;9707;49.158;8.632;2023-08-12T07:26:11;7.55;;;4.50;;
19149;SDS011;9707;49.158;8.632;2023-08-12T07:28:36;8.48;;;4.53;;
19149;SDS011;9707;49.158;8.632;2023-08-12T07:31:02;7.85;;;4.97;;
19149;SDS011;9707;49.158;8.632;2023-08-12T07:33:27;5.55;;;4.93;;
19149;SDS011;9707;49.158;8.632;2023-08-12T07:35:52;6.43;;;4.82;;
19149;SDS011;9707;49.158;8.632;2023-08-12T07:38:18;6.80;;;4.85;;
19149;SDS011;9707;49.158;8.632;2023-08-12T07:40:43;5.10;;;4.60;;
19149;SDS011;9707;49.158;8.632;2023-08-12T07:43:08;7.03;;;4.43;;
19149;SDS011;9707;49.158;8.632;2023-08-12T07:45:34;4.90;;;4.40;;
19149;SDS011;9707;49.158;8.632;2023-08-12T07:47:59;6.75;;;4.30;;
19149;SDS011;9707;49.158;8.632;2023-08-12T07:50:24;7.32;;;5.20;;
19149;SDS011;9707;49.158;8.632;2023-08-12T07:52:49;6.05;;;4.97;;
19149;SDS011;9707;49.158;8.632;2023-08-12T07:55:15;6.93;;;4.88;;
19149;SDS011;9707;49.158;8.632;2023-08-12T07:57:41;5.35;;;4.18;;
19149;SDS011;9707;49.158;8.632;2023-08-12T08:00:06;5.65;;;4.57;;
19149;SDS011;9707;49.158;8.632;2023-08-12T08:02:36;5.60;;;4.47;;
19149;SDS011;9707;49.158;8.632;2023-08-12T08:05:02;7.32;;;4.38;;
19149;SDS011;9707;49.158;8.632;2023-08-12T08:07:27;8.13;;;5.10;;
19149;SDS011;9707;49.158;8.632;2023-08-12T08:09:53;7.13;;;4.85;;
19149;SDS011;9707;49.158;8.632;2023-08-12T08:12:18;6.97;;;4.70;;
19149;SDS011;9707;49.158;8.632;2023-08-12T08:14:44;6.00;;;4.53;;
19149;SDS011;9707;49.158;8.632;2023-08-12T08:17:09;8.52;;;4.75;;
19149;SDS011;9707;49.158;8.632;2023-08-12T08:19:34;6.63;;;4.40;;
19149;SDS011;9707;49.158;8.632;2023-08-12T08:21:59;7.10;;;4.72;;
19149;SDS011;9707;49.158;8.632;2023-08-12T08:24:25;9.23;;;4.90;;
19149;SDS011;9707;49.158;8.632;2023-08-12T08:26:50;8.85;;;5.18;;
19149;SDS011;9707;49.158;8.632;2023-08-12T08:29:15;6.80;;;4.97;;
19149;SDS011;9707;49.158;8.632;2023-08-12T08:31:41;7.80;;;5.07;;
19149;SDS011;9707;49.158;8.632;2023-08-12T08:34:06;9.35;;;4.95;;
19149;SDS011;9707;49.158;8.632;2023-08-12T08:36:31;5.93;;;5.15;;
19149;SDS011;9707;49.158;8.632;2023-08-12T08:38:57;5.82;;;4.80;;
19149;SDS011;9707;49.158;8.632;2023-08-12T08:41:22;6.50;;;5.15;;
19149;SDS011;9707;49.158;8.632;2023-08-12T08:43:48;9.18;;;5.22;;
19149;SDS011;9707;49.158;8.632;2023-08-12T08:46:15;7.68;;;5.38;;
19149;SDS011;9707;49.158;8.632;2023-08-12T08:48:42;5.82;;;4.78;;
19149;SDS011;9707;49.158;8.632;2023-08-12T08:51:08;7.05;;;4.90;;
19149;SDS011;9707;49.158;8.632;2023-08-12T08:53:38;6.80;;;4.53;;
19149;SDS011;9707;49.158;8.632;2023-08-12T08:56:08;8.20;;;5.15;;
19149;SDS011;9707;49.158;8.632;2023-08-12T08:58:36;8.85;;;5.13;;
19149;SDS011;9707;49.158;8.632;2023-08-12T09:01:02;6.93;;;5.10;;
19149;SDS011;9707;49.158;8.632;2023-08-12T09:03:28;7.47;;;4.97;;
19149;SDS011;9707;49.158;8.632;2023-08-12T09:05:54;7.15;;;4.60;;
19149;SDS011;9707;49.158;8.632;2023-08-12T09:08:22;7.63;;;5.38;;
19149;SDS011;9707;49.158;8.632;2023-08-12T09:10:49;6.50;;;5.68;;
19149;SDS011;9707;49.158;8.632;2023-08-12T09:13:15;6.00;;;4.95;;
19149;SDS011;9707;49.158;8.632;2023-08-12T09:15:43;6.72;;;5.75;;
19149;SDS011;9707;49.158;8.632;2023-08-12T09:18:08;7.78;;;5.72;;
19149;SDS011;9707;49.158;8.632;2023-08-12T09:20:34;6.80;;;5.13;;
19149;SDS011;9707;49.158;8.632;2023-08-12T09:23:00;9.30;;;5.40;;
19149;SDS011;9707;49.158;8.632;2023-08-12T09:25:31;6.72;;;5.10;;
19149;SDS011;9707;49.158;8.632;2023-08-12T09:28:00;6.53;;;5.57;;
19149;SDS011;9707;49.158;8.632;2023-08-12T09:30:28;6.18;;;5.22;;
19149;SDS011;9707;49.158;8.632;2023-08-12T09:32:57;5.80;;;5.20;;
19149;SDS011;9707;49.158;8.632;2023-08-12T09:35:30;8.00;;;5.05;;
19149;SDS011;9707;49.158;8.632;2023-08-12T09:37:57;6.55;;;5.40;;
19149;SDS011;9707;49.158;8.632;2023-08-12T09:40:22;6.15;;;4.75;;
19149;SDS011;9707;49.158;8.632;2023-08-12T09:42:48;6.88;;;4.97;;
19149;SDS011;9707;49.158;8.632;2023-08-12T09:45:13;7.53;;;5.03;;
19149;SDS011;9707;49.158;8.632;2023-08-12T09:47:38;7.72;;;5.28;;
19149;SDS011;9707;49.158;8.632;2023-08-12T09:50:06;6.97;;;5.68;;
19149;SDS011;9707;49.158;8.632;2023-08-12T09:52:32;6.78;;;5.25;;
19149;SDS011;9707;49.158;8.632;2023-08-12T09:54:57;6.28;;;5.03;;
19149;SDS011;9707;49.158;8.632;2023-08-12T09:57:25;8.52;;;5.05;;
19149;SDS011;9707;49.158;8.632;2023-08-12T09:59:54;6.93;;;5.13;;
19149;SDS011;9707;49.158;8.632;2023-08-12T10:02:22;10.63;;;5.63;;
19149;SDS011;9707;49.158;8.632;2023-08-12T10:04:49;6.88;;;5.18;;
19149;SDS011;9707;49.158;8.632;2023-08-12T10:07:18;5.43;;;4.63;;
19149;SDS011;9707;49.158;8.632;2023-08-12T10:09:45;5.40;;;4.43;;
19149;SDS011;9707;49.158;8.632;2023-08-12T10:12:10;5.25;;;4.63;;
19149;SDS011;9707;49.158;8.632;2023-08-12T10:14:40;6.28;;;5.15;;
19149;SDS011;9707;49.158;8.632;2023-08-12T10:17:05;6.05;;;4.82;;
19149;SDS011;9707;49.158;8.632;2023-08-12T10:19:31;6.93;;;4.18;;
19149;SDS011;9707;49.158;8.632;2023-08-12T10:21:57;6.68;;;4.03;;
19149;SDS011;9707;49.158;8.632;2023-08-12T10:24:24;6.63;;;4.40;;
19149;SDS011;9707;49.158;8.632;2023-08-12T10:26:51;5.18;;;4.25;;
19149;SDS011;9707;49.158;8.632;2023-08-12T10:29:17;6.90;;;4.30;;
19149;SDS011;9707;49.158;8.632;2023-08-12T10:31:43;7.25;;;4.80;;
19149;SDS011;9707;49.158;8.632;2023-08-12T10:34:23;4.45;;;4.05;;
19149;SDS011;9707;49.158;8.632;2023-08-12T10:37:00;5.50;;;4.07;;
19149;SDS011;9707;49.158;8.632;2023-08-12T10:39:27;7.45;;;4.70;;
19149;SDS011;9707;49.158;8.632;2023-08-12T10:41:54;5.45;;;4.25;;
19149;SDS011;9707;49.158;8.632;2023-08-12T10:44:21;5.75;;;4.00;;
19149;SDS011;9707;49.158;8.632;2023-08-12T10:46:51;5.57;;;4.40;;
19149;SDS011;9707;49.158;8.632;2023-08-12T10:49:18;7.28;;;4.47;;
19149;SDS011;9707;49.158;8.632;2023-08-12T10:51:48;9.10;;;4.72;;
19149;SDS011;9707;49.158;8.632;2023-08-12T11:02:16;7.90;;;4.30;;
19149;SDS011;9707;49.158;8.632;2023-08-12T11:05:02;6.47;;;3.95;;
19149;SDS011;9707;49.158;8.632;2023-08-12T11:07:40;5.38;;;3.88;;
19149;SDS011;9707;49.158;8.632;2023-08-12T11:10:27;6.53;;;4.07;;
19149;SDS011;9707;49.158;8.632;2023-08-12T11:12:55;5.95;;;3.80;;
19149;SDS011;9707;49.158;8.632;2023-08-12T11:15:35;6.63;;;3.50;;
19149;SDS011;9707;49.158;8.632;2023-08-12T11:18:10;4.22;;;3.83;;
19149;SDS011;9707;49.158;8.632;2023-08-12T11:20:38;6.60;;;3.58;;
19149;SDS011;9707;49.158;8.632;2023-08-12T11:23:05;5.57;;;3.88;;
19149;SDS011;9707;49.158;8.632;2023-08-12T11:25:32;6.65;;;3.50;;
19149;SDS011;9707;49.158;8.632;2023-08-12T11:27:59;5.75;;;3.75;;
19149;SDS011;9707;49.158;8.632;2023-08-12T11:30:25;8.23;;;4.22;;
19149;SDS011;9707;49.158;8.632;2023-08-12T11:32:51;7.85;;;4.30;;
19149;SDS011;9707;49.158;8.632;2023-08-12T11:35:18;7.35;;;4.25;;
19149;SDS011;9707;49.158;8.632;2023-08-12T11:37:46;7.07;;;4.43;;
19149;SDS011;9707;49.158;8.632;2023-08-12T11:40:13;8.77;;;4.50;;
19149;SDS011;9707;49.158;8.632;2023-08-12T11:42:41;9.00;;;4.70;;
19149;SDS011;9707;49.158;8.632;2023-08-12T11:45:08;6.63;;;4.53;;
19149;SDS011;9707;49.158;8.632;2023-08-12T11:47:37;6.70;;;5.20;;
19149;SDS011;9707;49.158;8.632;2023-08-12T11:50:04;6.57;;;4.90;;
19149;SDS011;9707;49.158;8.632;2023-08-12T11:52:31;6.78;;;3.90;;
19149;SDS011;9707;49.158;8.632;2023-08-12T11:54:57;4.45;;;3.40;;
19149;SDS011;9707;49.158;8.632;2023-08-12T11:57:23;4.25;;;3.85;;
19149;SDS011;9707;49.158;8.632;2023-08-12T11:59:51;5.80;;;3.08;;
19149;SDS011;9707;49.158;8.632;2023-08-12T12:02:18;3.80;;;3.40;;
19149;SDS011;9707;49.158;8.632;2023-08-12T12:04:43;4.70;;;3.08;;
19149;SDS011;9707;49.158;8.632;2023-08-12T12:07:18;5.22;;;3.20;;
19149;SDS011;9707;49.158;8.632;2023-08-12T12:09:44;4.55;;;2.95;;
19149;SDS011;9707;49.158;8.632;2023-08-12T12:12:10;4.05;;;2.78;;
19149;SDS011;9707;49.158;8.632;2023-08-12T12:14:35;6.28;;;2.88;;
19149;SDS011;9707;49.158;8.632;2023-08-12T12:17:01;4.45;;;3.00;;
19149;SDS011;9707;49.158;8.632;2023-08-12T12:19:32;3.95;;;2.60;;
19149;SDS011;9707;49.158;8.632;2023-08-12T12:21:57;4.18;;;2.53;;
19149;SDS011;9707;49.158;8.632;2023-08-12T12:24:29;4.30;;;2.47;;
19149;SDS011;9707;49.158;8.632;2023-08-12T12:26:55;3.20;;;2.60;;
19149;SDS011;9707;49.158;8.632;2023-08-12T12:29:21;2.92;;;2.42;;
19149;SDS011;9707;49.158;8.632;2023-08-12T12:31:46;4.60;;;2.72;;
19149;SDS011;9707;49.158;8.632;2023-08-12T12:34:12;3.28;;;2.80;;
19149;SDS011;9707;49.158;8.632;2023-08-12T12:36:39;4.35;;;2.70;;
19149;SDS011;9707;49.158;8.632;2023-08-12T12:39:05;2.95;;;2.50;;
19149;SDS011;9707;49.158;8.632;2023-08-12T12:41:31;3.70;;;2.33;;
19149;SDS011;9707;49.158;8.632;2023-08-12T12:43:57;3.30;;;2.83;;
19149;SDS011;9707;49.158;8.632;2023-08-12T12:46:24;4.25;;;2.67;;
19149;SDS011;9707;49.158;8.632;2023-08-12T12:48:49;4.82;;;2.70;;
19149;SDS011;9707;49.158;8.632;2023-08-12T12:51:15;3.22;;;2.55;;
19149;SDS011;9707;49.158;8.632;2023-08-12T12:53:40;3.80;;;2.45;;
19149;SDS011;9707;49.158;8.632;2023-08-12T12:56:06;5.75;;;2.70;;
19149;SDS011;9707;49.158;8.632;2023-08-12T12:58:32;2.70;;;2.33;;
19149;SDS011;9707;49.158;8.632;2023-08-12T13:01:01;4.32;;;2.45;;
19149;SDS011;9707;49.158;8.632;2023-08-12T13:03:27;4.93;;;2.60;;
19149;SDS011;9707;49.158;8.632;2023-08-12T13:05:54;3.22;;;2.38;;
19149;SDS011;9707;49.158;8.632;2023-08-12T13:08:19;3.83;;;2.65;;
19149;SDS011;9707;49.158;8.632;2023-08-12T13:10:44;5.32;;;2.80;;
19149;SDS011;9707;49.158;8.632;2023-08-12T13:13:10;3.45;;;2.40;;
19149;SDS011;9707;49.158;8.632;2023-08-12T13:15:35;2.67;;;2.38;;
19149;SDS011;9707;49.158;8.632;2023-08-12T13:18:01;6.03;;;2.88;;
19149;SDS011;9707;49.158;8.632;2023-08-12T13:20:26;5.40;;;2.75;;
19149;SDS011;9707;49.158;8.632;2023-08-12T13:22:52;4.80;;;3.00;;
19149;SDS011;9707;49.158;8.632;2023-08-12T13:25:17;3.97;;;3.13;;
19149;SDS011;9707;49.158;8.632;2023-08-12T13:27:42;4.63;;;3.20;;
19149;SDS011;9707;49.158;8.632;2023-08-12T13:30:08;4.47;;;2.90;;
19149;SDS011;9707;49.158;8.632;2023-08-12T13:32:34;3.92;;;3.22;;
19149;SDS011;9707;49.158;8.632;2023-08-12T13:35:00;3.95;;;2.53;;
19149;SDS011;9707;49.158;8.632;2023-08-12T13:37:25;5.07;;;2.80;;
19149;SDS011;9707;49.158;8.632;2023-08-12T13:39:50;4.30;;;2.75;;
19149;SDS011;9707;49.158;8.632;2023-08-12T13:42:15;4.32;;;2.85;;
19149;SDS011;9707;49.158;8.632;2023-08-12T13:44:41;4.93;;;2.97;;
19149;SDS011;9707;49.158;8.632;2023-08-12T13:47:06;5.03;;;2.65;;
19149;SDS011;9707;49.158;8.632;2023-08-12T13:49:31;4.18;;;3.00;;
19149;SDS011;9707;49.158;8.632;2023-08-12T13:51:56;4.35;;;2.70;;
19149;SDS011;9707;49.158;8.632;2023-08-12T13:54:24;3.20;;;2.83;;
19149;SDS011;9707;49.158;8.632;2023-08-12T13:56:50;4.28;;;2.80;;
19149;SDS011;9707;49.158;8.632;2023-08-12T13:59:15;3.85;;;3.10;;
19149;SDS011;9707;49.158;8.632;2023-08-12T14:01:40;6.60;;;3.28;;
19149;SDS011;9707;49.158;8.632;2023-08-12T14:04:05;4.50;;;3.10;;
19149;SDS011;9707;49.158;8.632;2023-08-12T14:06:31;5.57;;;2.95;;
19149;SDS011;9707;49.158;8.632;2023-08-12T14:08:56;4.53;;;3.08;;
19149;SDS011;9707;49.158;8.632;2023-08-12T14:11:21;5.63;;;3.35;;
19149;SDS011;9707;49.158;8.632;2023-08-12T14:13:46;4.88;;;3.08;;
19149;SDS011;9707;49.158;8.632;2023-08-12T14:16:12;5.63;;;3.42;;
19149;SDS011;9707;49.158;8.632;2023-08-12T14:18:37;6.00;;;3.40;;
19149;SDS011;9707;49.158;8.632;2023-08-12T14:21:03;3.83;;;3.05;;
19149;SDS011;9707;49.158;8.632;2023-08-12T14:23:29;5.90;;;3.30;;
19149;SDS011;9707;49.158;8.632;2023-08-12T14:25:54;5.43;;;3.08;;
19149;SDS011;9707;49.158;8.632;2023-08-12T14:28:19;3.97;;;2.83;;
19149;SDS011;9707;49.158;8.632;2023-08-12T14:30:44;6.05;;;3.40;;
19149;SDS011;9707;49.158;8.632;2023-08-12T14:33:10;5.60;;;3.35;;
19149;SDS011;9707;49.158;8.632;2023-08-12T14:35:35;3.83;;;2.97;;
19149;SDS011;9707;49.158;8.632;2023-08-12T14:38:00;4.82;;;3.00;;
19149;SDS011;9707;49.158;8.632;2023-08-12T14:40:26;7.97;;;3.08;;
19149;SDS011;9707;49.158;8.632;2023-08-12T14:42:51;4.15;;;2.88;;
19149;SDS011;9707;49.158;8.632;2023-08-12T14:45:16;4.20;;;2.75;;
19149;SDS011;9707;49.158;8.632;2023-08-12T14:47:41;3.70;;;3.03;;
19149;SDS011;9707;49.158;8.632;2023-08-12T14:50:07;5.43;;;3.08;;
19149;SDS011;9707;49.158;8.632;2023-08-12T14:52:33;5.70;;;3.55;;
19149;SDS011;9707;49.158;8.632;2023-08-12T14:54:59;4.55;;;3.70;;
19149;SDS011;9707;49.158;8.632;2023-08-12T14:57:24;5.78;;;3.85;;
19149;SDS011;9707;49.158;8.632;2023-08-12T14:59:49;6.00;;;3.60;;
19149;SDS011;9707;49.158;8.632;2023-08-12T15:02:16;8.82;;;4.40;;
19149;SDS011;9707;49.158;8.632;2023-08-12T15:04:42;12.50;;;5.30;;
19149;SDS011;9707;49.158;8.632;2023-08-12T15:07:08;8.15;;;4.07;;